createdAt,value
2017-12-24T07:09:18.435Z,4.63
2017-12-24T07:11:45.888Z,2.87
2017-12-24T07:14:13.324Z,2.73
2017-12-24T07:16:42.443Z,3.50
2017-12-24T07:19:09.891Z,3.27
2017-12-24T07:21:37.778Z,3.10
2017-12-24T07:24:05.218Z,3.10
2017-12-24T07:26:32.667Z,3.43
2017-12-24T07:42:43.938Z,2.87
2017-12-24T07:45:11.388Z,3.03
2017-12-24T07:47:38.822Z,5.10
2017-12-24T07:50:07.039Z,2.60
2017-12-24T07:52:34.478Z,3.07
2017-12-24T07:55:01.924Z,2.73
2017-12-24T07:57:29.367Z,3.63
2017-12-24T07:59:56.808Z,2.40
2017-12-24T08:02:25.019Z,2.20
2017-12-24T08:04:52.455Z,2.60
2017-12-24T08:07:19.890Z,7.47
2017-12-24T08:09:48.118Z,7.27
2017-12-24T08:12:15.562Z,8.10
2017-12-24T08:14:42.995Z,11.10
2017-12-24T08:17:10.434Z,9.10
2017-12-24T08:19:38.649Z,10.57
2017-12-24T08:22:06.107Z,6.77
2017-12-24T08:24:33.534Z,3.60
2017-12-24T08:27:00.978Z,3.63
2017-12-24T08:29:29.223Z,5.20
2017-12-24T08:31:56.680Z,4.97
2017-12-24T08:34:24.115Z,5.00
2017-12-24T08:36:51.554Z,6.80
2017-12-24T08:39:19.006Z,13.33
2017-12-24T08:41:46.680Z,7.37
2017-12-24T08:44:14.127Z,15.50
2017-12-24T08:46:41.571Z,15.87
2017-12-24T08:49:09.014Z,16.37
2017-12-24T08:51:37.226Z,8.33
2017-12-24T08:54:04.670Z,2.97
2017-12-24T08:56:32.126Z,6.47
2017-12-24T08:58:59.566Z,4.50
2017-12-24T09:01:27.031Z,6.20
2017-12-24T09:03:54.542Z,5.60
2017-12-24T09:06:21.976Z,8.70
2017-12-24T09:08:49.422Z,5.70
2017-12-24T09:11:16.863Z,10.33
2017-12-24T09:13:44.318Z,20.00
2017-12-24T09:16:11.763Z,13.13
2017-12-24T09:18:39.203Z,5.60
2017-12-24T09:21:06.638Z,7.13
2017-12-24T09:23:34.083Z,3.30
2017-12-24T09:26:01.520Z,3.97
2017-12-24T09:28:28.987Z,3.37
2017-12-24T09:30:56.462Z,3.70
2017-12-24T09:33:23.898Z,4.30
2017-12-24T09:35:51.334Z,3.83
2017-12-24T09:38:18.781Z,3.57
2017-12-24T09:40:46.338Z,3.10
2017-12-24T09:43:13.804Z,2.67
2017-12-24T09:45:41.352Z,2.60
2017-12-24T09:48:08.803Z,2.83
2017-12-24T09:50:36.263Z,4.47
2017-12-24T09:53:03.718Z,3.00
2017-12-24T09:55:31.150Z,2.57
2017-12-24T09:57:58.594Z,4.20
2017-12-24T10:00:26.803Z,3.43
2017-12-24T10:02:54.247Z,2.70
2017-12-24T10:05:21.675Z,3.03
2017-12-24T10:07:49.891Z,3.00
2017-12-24T10:10:17.336Z,3.13
2017-12-24T10:12:44.779Z,2.80
2017-12-24T10:15:12.288Z,2.90
2017-12-24T10:17:39.747Z,3.40
2017-12-24T10:20:07.186Z,3.30
2017-12-24T10:22:34.627Z,2.50
2017-12-24T10:25:02.079Z,3.80
2017-12-24T10:27:29.548Z,6.90
2017-12-24T10:29:56.990Z,4.97
2017-12-24T10:32:24.435Z,3.50
2017-12-24T10:34:51.878Z,2.90
2017-12-24T10:37:20.779Z,2.03
2017-12-24T10:39:48.219Z,1.90
2017-12-24T10:42:16.427Z,2.70
2017-12-24T10:44:43.961Z,2.50
2017-12-24T10:47:12.154Z,2.80
2017-12-24T10:49:39.610Z,2.03
2017-12-24T10:52:07.042Z,2.13
2017-12-24T10:54:34.478Z,2.10
2017-12-24T10:57:02.697Z,3.53
2017-12-24T10:59:30.193Z,2.63
2017-12-24T11:01:57.644Z,2.57
2017-12-24T11:04:25.098Z,2.23
2017-12-24T11:06:52.535Z,2.63
2017-12-24T11:09:19.979Z,2.20
2017-12-24T11:11:47.413Z,5.20
2017-12-24T11:14:14.850Z,4.07
2017-12-24T11:16:43.059Z,2.03
2017-12-24T11:19:10.499Z,1.80
2017-12-24T11:21:37.944Z,2.20
2017-12-24T11:24:06.166Z,2.63
2017-12-24T11:26:33.595Z,1.43
2017-12-24T11:29:01.083Z,1.50
2017-12-24T11:31:28.518Z,2.47
2017-12-24T11:33:56.006Z,1.60
2017-12-24T11:36:23.492Z,1.87
2017-12-24T11:38:51.713Z,1.90
2017-12-24T11:41:19.159Z,1.70
2017-12-24T11:43:46.599Z,2.50
2017-12-24T11:46:14.048Z,2.13
2017-12-24T11:48:41.480Z,2.67
2017-12-24T11:51:08.922Z,2.63
2017-12-24T11:53:36.370Z,1.77
2017-12-24T11:56:03.828Z,2.23
2017-12-24T11:58:31.259Z,2.07
2017-12-24T12:00:58.702Z,3.27
2017-12-24T12:03:26.152Z,3.27
2017-12-24T12:05:53.591Z,4.33
2017-12-24T12:08:21.022Z,2.47
2017-12-24T12:10:48.462Z,2.23
2017-12-24T12:13:15.903Z,3.03
2017-12-24T12:15:43.346Z,2.67
2017-12-24T12:18:10.791Z,2.60
2017-12-24T12:20:38.229Z,2.93
2017-12-24T12:23:05.667Z,2.80
2017-12-24T12:25:33.879Z,3.07
2017-12-24T12:28:01.327Z,3.10
2017-12-24T12:30:28.769Z,3.17
2017-12-24T12:32:56.204Z,4.90
2017-12-24T12:35:24.421Z,4.17
2017-12-24T12:37:51.846Z,4.00
2017-12-24T12:40:19.290Z,6.40
2017-12-24T12:42:47.780Z,4.07
2017-12-24T12:45:15.236Z,3.50
2017-12-24T12:47:43.464Z,3.90
2017-12-24T12:50:10.899Z,5.03
2017-12-24T12:52:38.356Z,5.40
2017-12-24T12:55:05.805Z,4.47
2017-12-24T12:57:33.264Z,5.87
2017-12-24T13:00:00.708Z,3.70
2017-12-24T13:02:28.147Z,4.30
2017-12-24T13:04:56.359Z,4.07
2017-12-24T13:07:23.802Z,4.43
2017-12-24T13:09:51.237Z,5.07
2017-12-24T13:12:18.695Z,5.00
2017-12-24T13:14:46.161Z,4.47
2017-12-24T13:17:13.622Z,3.90
2017-12-24T13:19:41.108Z,3.50
2017-12-24T13:22:08.555Z,3.63
2017-12-24T13:24:36.061Z,3.73
2017-12-24T13:27:03.522Z,3.83
2017-12-24T13:29:31.750Z,4.50
2017-12-24T13:31:59.255Z,3.23
2017-12-24T13:34:27.458Z,3.10
2017-12-24T13:36:54.919Z,2.97
2017-12-24T13:39:22.353Z,3.97
2017-12-24T13:41:49.786Z,4.67
2017-12-24T13:44:17.998Z,4.17
2017-12-24T13:46:45.453Z,4.13
2017-12-24T13:49:12.886Z,3.50
2017-12-24T13:51:41.112Z,3.60
2017-12-24T13:54:08.547Z,4.00
2017-12-24T13:56:36.315Z,5.37
2017-12-24T13:59:03.767Z,4.20
2017-12-24T14:01:31.186Z,3.50
2017-12-24T14:03:59.395Z,4.03
2017-12-24T14:06:26.831Z,3.50
2017-12-24T14:08:54.652Z,4.30
2017-12-24T14:11:22.183Z,4.40
2017-12-24T14:13:49.626Z,3.53
2017-12-24T14:16:17.067Z,6.40
2017-12-24T14:18:44.515Z,3.07
2017-12-24T14:21:11.948Z,3.20
2017-12-24T14:23:39.390Z,3.90
2017-12-24T14:26:06.830Z,3.37
2017-12-24T14:28:34.282Z,3.57
2017-12-24T14:31:01.726Z,3.27
2017-12-24T14:33:29.182Z,4.60
2017-12-24T14:35:56.624Z,1.67
2017-12-24T14:38:24.067Z,4.20
2017-12-24T14:40:51.510Z,2.70
2017-12-24T14:43:18.957Z,2.80
2017-12-24T14:45:47.165Z,3.03
2017-12-24T14:48:14.609Z,3.90
2017-12-24T14:50:42.051Z,3.33
2017-12-24T14:53:10.251Z,3.67
2017-12-24T14:55:37.681Z,3.60
2017-12-24T14:58:05.122Z,4.03
2017-12-24T15:00:33.339Z,3.13
2017-12-24T15:03:00.776Z,3.33
2017-12-24T15:05:28.202Z,4.20
2017-12-24T15:07:55.647Z,4.50
2017-12-24T15:10:23.086Z,3.83
2017-12-24T15:12:50.527Z,4.40
2017-12-24T15:15:17.971Z,4.03
2017-12-24T15:17:45.406Z,4.40
2017-12-24T15:20:12.853Z,3.90
2017-12-24T15:22:41.055Z,3.20
2017-12-24T15:25:08.494Z,3.73
2017-12-24T15:27:35.930Z,3.50
2017-12-24T15:30:04.143Z,4.10
2017-12-24T15:32:31.582Z,4.23
2017-12-24T15:34:59.031Z,4.87
2017-12-24T15:37:26.469Z,5.60
2017-12-24T15:39:54.689Z,3.93
2017-12-24T15:42:22.123Z,4.07
2017-12-24T15:44:49.563Z,4.40
2017-12-24T15:47:17.764Z,5.00
2017-12-24T15:49:45.203Z,4.87
2017-12-24T15:52:12.639Z,4.43
2017-12-24T15:54:40.849Z,3.67
2017-12-24T15:57:08.288Z,3.80
2017-12-24T15:59:36.495Z,3.83
2017-12-24T16:02:03.934Z,5.80
2017-12-24T16:04:31.374Z,4.07
2017-12-24T16:06:58.837Z,4.83
2017-12-24T16:09:26.238Z,4.17
2017-12-24T16:11:53.666Z,4.50
2017-12-24T16:14:21.114Z,3.20
2017-12-24T16:16:48.547Z,4.80
2017-12-24T16:19:15.983Z,5.03
2017-12-24T16:21:44.198Z,5.10
2017-12-24T16:24:11.654Z,5.17
2017-12-24T16:26:39.099Z,5.30
2017-12-24T16:29:06.565Z,4.70
2017-12-24T16:31:33.987Z,4.43
2017-12-24T16:34:02.196Z,3.87
2017-12-24T16:36:29.655Z,4.20
2017-12-24T16:38:57.095Z,5.10
2017-12-24T16:41:24.530Z,5.73
2017-12-24T16:43:52.736Z,4.70
2017-12-24T16:46:20.177Z,4.33
2017-12-24T16:48:47.608Z,3.93
2017-12-24T16:51:15.042Z,3.87
2017-12-24T16:53:42.475Z,3.80
2017-12-24T16:56:09.929Z,5.17
2017-12-24T16:58:37.370Z,4.23
2017-12-24T17:01:04.810Z,3.30
2017-12-24T17:03:32.242Z,3.77
2017-12-24T17:05:59.686Z,3.17
2017-12-24T17:08:27.119Z,3.10
2017-12-24T17:10:54.562Z,2.80
2017-12-24T17:13:22.003Z,3.60
2017-12-24T17:15:49.446Z,3.93
2017-12-24T17:18:16.878Z,3.60
2017-12-24T17:20:45.097Z,3.60
2017-12-24T17:23:12.518Z,4.10
2017-12-24T17:25:39.959Z,4.07
2017-12-24T17:28:08.159Z,3.30
2017-12-24T17:30:35.605Z,3.97
2017-12-24T17:33:03.802Z,4.07
2017-12-24T17:35:31.230Z,3.70
2017-12-24T17:37:59.443Z,3.63
2017-12-24T17:40:26.886Z,3.50
2017-12-24T17:42:54.326Z,4.63
2017-12-24T17:45:21.767Z,4.70
2017-12-24T17:47:49.972Z,5.37
2017-12-24T17:50:17.407Z,4.00
2017-12-24T17:52:44.847Z,4.40
2017-12-24T17:55:13.059Z,4.77
2017-12-24T17:57:40.502Z,4.87
2017-12-24T18:00:07.935Z,4.57
2017-12-24T18:02:36.144Z,5.43
2017-12-24T18:05:03.574Z,4.33
2017-12-24T18:07:31.012Z,5.10
2017-12-24T18:09:58.442Z,4.80
2017-12-24T18:12:25.878Z,4.03
2017-12-24T18:14:53.320Z,4.33
2017-12-24T18:17:20.779Z,4.37
2017-12-24T18:19:48.210Z,4.63
2017-12-24T18:22:15.654Z,4.13
2017-12-24T18:24:43.862Z,3.80
2017-12-24T18:27:11.302Z,4.10
2017-12-24T18:29:38.734Z,4.20
2017-12-24T18:32:06.946Z,7.40
2017-12-24T18:34:34.403Z,6.37
2017-12-24T18:37:01.834Z,5.17
2017-12-24T18:39:29.271Z,4.10
2017-12-24T18:41:56.711Z,4.97
2017-12-24T18:44:24.146Z,4.43
2017-12-24T18:46:51.590Z,5.10
2017-12-24T18:49:19.035Z,7.20
2017-12-24T18:51:46.476Z,5.50
2017-12-24T18:54:13.910Z,5.40
2017-12-24T18:56:42.161Z,6.20
2017-12-24T18:59:09.594Z,4.83
2017-12-24T19:01:37.036Z,4.50
2017-12-24T19:04:04.470Z,5.37
2017-12-24T19:06:31.907Z,4.60
2017-12-24T19:08:59.346Z,4.93
2017-12-24T19:11:26.795Z,5.20
2017-12-24T19:13:54.241Z,4.43
2017-12-24T19:16:21.683Z,3.73
2017-12-24T19:18:49.126Z,3.70
2017-12-24T19:21:16.554Z,3.90
2017-12-24T19:23:44.048Z,4.23
2017-12-24T19:26:11.496Z,4.37
2017-12-24T19:28:38.985Z,3.67
2017-12-24T19:31:06.478Z,3.20
2017-12-24T19:33:33.972Z,6.40
2017-12-24T19:36:01.402Z,9.73
2017-12-24T19:38:28.842Z,8.33
2017-12-24T19:40:57.047Z,5.33
2017-12-24T19:43:24.492Z,3.57
2017-12-24T19:45:51.927Z,3.63
2017-12-24T19:48:20.146Z,3.77
2017-12-24T19:50:47.587Z,4.43
2017-12-24T19:53:15.027Z,3.93
2017-12-24T19:55:42.529Z,3.97
2017-12-24T19:58:10.044Z,3.80
2017-12-24T20:00:37.521Z,4.53
2017-12-24T20:03:04.991Z,4.23
2017-12-24T20:05:32.427Z,4.77
2017-12-24T20:07:59.862Z,5.50
2017-12-24T20:10:27.354Z,5.33
2017-12-24T20:12:54.834Z,4.70
2017-12-24T20:15:22.312Z,4.50
2017-12-24T20:17:49.785Z,6.13
2017-12-24T20:20:18.033Z,5.43
2017-12-24T20:22:45.513Z,4.70
2017-12-24T20:25:13.752Z,4.73
2017-12-24T20:27:41.225Z,4.70
2017-12-24T20:30:08.696Z,4.80
2017-12-24T20:32:36.950Z,4.80
2017-12-24T20:35:04.482Z,5.03
2017-12-24T20:37:31.977Z,5.83
2017-12-24T20:39:59.484Z,5.67
2017-12-24T20:42:26.988Z,5.70
2017-12-24T20:44:54.422Z,5.47
2017-12-24T20:47:21.908Z,5.93
2017-12-24T20:49:49.432Z,8.03
2017-12-24T20:52:16.896Z,5.03
2017-12-24T20:54:44.351Z,5.83
2017-12-24T20:57:11.917Z,5.47
2017-12-24T20:59:39.580Z,5.27
2017-12-24T21:02:07.063Z,5.67
2017-12-24T21:04:34.582Z,5.30
2017-12-24T21:07:02.113Z,5.53
2017-12-24T21:09:29.617Z,5.83
2017-12-24T21:11:57.710Z,5.57
2017-12-24T21:14:25.992Z,5.87
2017-12-24T21:16:54.241Z,5.80
2017-12-24T21:19:21.674Z,6.10
2017-12-24T21:21:49.198Z,7.73
2017-12-24T21:24:16.698Z,6.63
2017-12-24T21:26:44.269Z,7.10
2017-12-24T21:29:12.630Z,8.40
2017-12-24T21:31:40.121Z,6.67
2017-12-24T21:34:08.388Z,5.50
2017-12-24T21:36:35.866Z,6.20
2017-12-24T21:39:03.404Z,7.10
2017-12-24T21:41:31.943Z,6.60
2017-12-24T21:43:59.483Z,7.10
2017-12-24T21:46:27.378Z,6.37
2017-12-24T21:48:54.917Z,5.77
2017-12-24T21:51:22.438Z,6.70
2017-12-24T21:53:49.953Z,5.30
2017-12-24T21:56:17.457Z,5.10
2017-12-24T21:58:44.986Z,5.70
2017-12-24T22:01:12.472Z,6.03
2017-12-24T22:03:39.986Z,5.97
2017-12-24T22:06:07.511Z,5.60
2017-12-24T22:08:34.933Z,7.03
2017-12-24T22:11:02.418Z,6.50
2017-12-24T22:13:29.886Z,6.97
2017-12-24T22:15:57.374Z,7.10
2017-12-24T22:18:24.859Z,6.30
2017-12-24T22:20:53.101Z,6.53
2017-12-24T22:23:20.527Z,6.53
2017-12-24T22:25:47.957Z,7.30
2017-12-24T22:28:15.479Z,7.93
2017-12-24T22:30:42.957Z,7.37
2017-12-24T22:33:11.208Z,7.40
2017-12-24T22:35:38.684Z,7.03
2017-12-24T22:38:06.115Z,6.47
2017-12-24T22:40:33.550Z,6.60
2017-12-24T22:43:01.041Z,8.17
2017-12-24T22:45:28.511Z,7.30
2017-12-24T22:47:56.764Z,7.60
2017-12-24T22:50:24.196Z,6.77
2017-12-24T22:52:51.644Z,7.23
2017-12-24T22:55:19.098Z,7.10
2017-12-24T22:57:46.586Z,6.70
2017-12-24T23:00:14.060Z,7.20
2017-12-24T23:02:41.530Z,7.90
2017-12-24T23:05:09.772Z,7.23
2017-12-24T23:07:37.197Z,6.10
2017-12-24T23:10:04.672Z,7.40
2017-12-24T23:12:32.148Z,7.70
2017-12-24T23:14:59.579Z,6.60
2017-12-24T23:17:27.060Z,7.50
2017-12-24T23:19:54.497Z,8.17
2017-12-24T23:22:21.947Z,8.27
2017-12-24T23:24:49.434Z,7.80
2017-12-24T23:27:16.904Z,8.40
2017-12-24T23:29:45.901Z,7.67
2017-12-24T23:32:14.135Z,7.20
2017-12-24T23:34:41.621Z,7.47
2017-12-24T23:37:09.863Z,7.73
2017-12-24T23:39:37.336Z,9.07
2017-12-24T23:42:04.808Z,8.07
2017-12-24T23:44:32.281Z,7.87
2017-12-24T23:47:00.515Z,6.90
2017-12-24T23:49:27.988Z,9.70
2017-12-24T23:51:55.431Z,7.00
2017-12-24T23:54:22.917Z,7.30
2017-12-24T23:56:51.151Z,7.77
2017-12-24T23:59:18.591Z,8.27
